sensor_id;sensor_type;location;lat;lon;timestamp;pressure;altitude;pressure_sealevel;temperature;humidity
75551;BME280;65071;53.082;18.218;2024-02-28T00:01:27;101380.59;;;6.66;97.08
75551;BME280;65071;53.082;18.218;2024-02-28T00:03:54;101377.02;;;6.66;96.80
75551;BME280;65071;53.082;18.218;2024-02-28T00:06:20;101379.79;;;6.67;96.96
75551;BME280;65071;53.082;18.218;2024-02-28T00:08:47;101379.14;;;6.69;96.73
75551;BME280;65071;53.082;18.218;2024-02-28T00:11:13;101376.94;;;6.70;96.67
75551;BME280;65071;53.082;18.218;2024-02-28T00:13:39;101371.18;;;6.67;96.43
75551;BME280;65071;53.082;18.218;2024-02-28T00:16:06;101373.91;;;6.62;96.92
75551;BME280;65071;53.082;18.218;2024-02-28T00:18:32;101382.15;;;6.62;96.93
75551;BME280;65071;53.082;18.218;2024-02-28T00:20:59;101383.52;;;6.63;96.85
75551;BME280;65071;53.082;18.218;2024-02-28T00:23:25;101383.14;;;6.65;96.94
75551;BME280;65071;53.082;18.218;2024-02-28T00:25:52;101385.66;;;6.65;96.53
75551;BME280;65071;53.082;18.218;2024-02-28T00:28:18;101388.58;;;6.64;96.63
75551;BME280;65071;53.082;18.218;2024-02-28T00:30:45;101391.00;;;6.61;96.76
75551;BME280;65071;53.082;18.218;2024-02-28T00:33:12;101396.03;;;6.60;96.87
75551;BME280;65071;53.082;18.218;2024-02-28T00:35:39;101399.23;;;6.58;96.89
75551;BME280;65071;53.082;18.218;2024-02-28T00:38:05;101400.77;;;6.59;96.89
75551;BME280;65071;53.082;18.218;2024-02-28T00:42:58;101400.65;;;6.61;97.09
75551;BME280;65071;53.082;18.218;2024-02-28T00:45:24;101398.81;;;6.61;97.20
75551;BME280;65071;53.082;18.218;2024-02-28T00:47:50;101404.09;;;6.63;97.08
75551;BME280;65071;53.082;18.218;2024-02-28T00:50:17;101400.36;;;6.62;96.97
75551;BME280;65071;53.082;18.218;2024-02-28T00:52:43;101401.98;;;6.62;96.97
75551;BME280;65071;53.082;18.218;2024-02-28T00:55:09;101403.09;;;6.62;97.17
75551;BME280;65071;53.082;18.218;2024-02-28T00:57:36;101399.45;;;6.60;97.25
75551;BME280;65071;53.082;18.218;2024-02-28T01:00:02;101399.00;;;6.59;97.36
75551;BME280;65071;53.082;18.218;2024-02-28T01:02:28;101401.57;;;6.60;97.18
75551;BME280;65071;53.082;18.218;2024-02-28T01:04:55;101400.58;;;6.62;97.24
75551;BME280;65071;53.082;18.218;2024-02-28T01:07:21;101389.88;;;6.64;97.09
75551;BME280;65071;53.082;18.218;2024-02-28T01:09:48;101389.11;;;6.65;97.22
75551;BME280;65071;53.082;18.218;2024-02-28T01:12:14;101384.77;;;6.63;96.62
75551;BME280;65071;53.082;18.218;2024-02-28T01:14:40;101384.04;;;6.60;97.00
75551;BME280;65071;53.082;18.218;2024-02-28T01:17:07;101380.65;;;6.60;96.78
75551;BME280;65071;53.082;18.218;2024-02-28T01:19:33;101381.70;;;6.61;97.08
75551;BME280;65071;53.082;18.218;2024-02-28T01:22:00;101378.42;;;6.62;96.96
75551;BME280;65071;53.082;18.218;2024-02-28T01:24:26;101376.73;;;6.60;96.99
75551;BME280;65071;53.082;18.218;2024-02-28T01:26:53;101377.53;;;6.59;96.98
75551;BME280;65071;53.082;18.218;2024-02-28T01:29:19;101382.34;;;6.60;96.97
75551;BME280;65071;53.082;18.218;2024-02-28T01:31:45;101385.45;;;6.59;96.83
75551;BME280;65071;53.082;18.218;2024-02-28T01:34:12;101393.52;;;6.58;96.99
75551;BME280;65071;53.082;18.218;2024-02-28T01:36:38;101401.74;;;6.58;97.15
75551;BME280;65071;53.082;18.218;2024-02-28T01:39:04;101399.96;;;6.58;97.26
75551;BME280;65071;53.082;18.218;2024-02-28T01:41:30;101394.76;;;6.58;97.17
75551;BME280;65071;53.082;18.218;2024-02-28T01:43:57;101402.00;;;6.61;97.31
75551;BME280;65071;53.082;18.218;2024-02-28T01:46:26;101400.02;;;6.62;97.52
75551;BME280;65071;53.082;18.218;2024-02-28T01:48:54;101397.11;;;6.58;97.39
75551;BME280;65071;53.082;18.218;2024-02-28T01:51:22;101397.04;;;6.54;97.43
75551;BME280;65071;53.082;18.218;2024-02-28T01:53:51;101392.34;;;6.54;97.51
75551;BME280;65071;53.082;18.218;2024-02-28T01:56:19;101390.39;;;6.57;97.36
75551;BME280;65071;53.082;18.218;2024-02-28T01:58:47;101393.11;;;6.59;97.31
75551;BME280;65071;53.082;18.218;2024-02-28T02:01:14;101394.25;;;6.60;97.19
75551;BME280;65071;53.082;18.218;2024-02-28T02:03:44;101390.61;;;6.59;97.16
75551;BME280;65071;53.082;18.218;2024-02-28T02:06:10;101394.45;;;6.57;97.04
75551;BME280;65071;53.082;18.218;2024-02-28T02:08:38;101395.09;;;6.53;97.36
75551;BME280;65071;53.082;18.218;2024-02-28T02:11:05;101395.43;;;6.51;97.33
75551;BME280;65071;53.082;18.218;2024-02-28T02:13:32;101399.36;;;6.53;97.51
75551;BME280;65071;53.082;18.218;2024-02-28T02:15:58;101399.08;;;6.55;97.35
75551;BME280;65071;53.082;18.218;2024-02-28T02:18:24;101398.61;;;6.54;97.32
75551;BME280;65071;53.082;18.218;2024-02-28T02:20:54;101399.20;;;6.53;97.32
75551;BME280;65071;53.082;18.218;2024-02-28T02:23:24;101399.89;;;6.54;97.08
75551;BME280;65071;53.082;18.218;2024-02-28T02:25:50;101398.33;;;6.53;97.27
75551;BME280;65071;53.082;18.218;2024-02-28T02:28:17;101396.52;;;6.56;97.35
75551;BME280;65071;53.082;18.218;2024-02-28T02:30:44;101399.30;;;6.57;97.11
75551;BME280;65071;53.082;18.218;2024-02-28T02:33:11;101395.61;;;6.59;97.01
75551;BME280;65071;53.082;18.218;2024-02-28T02:35:37;101393.48;;;6.61;96.87
75551;BME280;65071;53.082;18.218;2024-02-28T02:38:03;101390.35;;;6.60;96.76
75551;BME280;65071;53.082;18.218;2024-02-28T02:40:29;101391.73;;;6.58;96.64
75551;BME280;65071;53.082;18.218;2024-02-28T02:42:56;101389.88;;;6.57;96.67
75551;BME280;65071;53.082;18.218;2024-02-28T02:45:22;101392.88;;;6.54;96.62
75551;BME280;65071;53.082;18.218;2024-02-28T02:47:49;101391.70;;;6.51;96.66
75551;BME280;65071;53.082;18.218;2024-02-28T02:50:15;101394.38;;;6.51;96.76
75551;BME280;65071;53.082;18.218;2024-02-28T02:52:41;101393.58;;;6.50;96.75
75551;BME280;65071;53.082;18.218;2024-02-28T02:55:08;101391.25;;;6.47;96.80
75551;BME280;65071;53.082;18.218;2024-02-28T02:57:35;101390.23;;;6.44;96.83
75551;BME280;65071;53.082;18.218;2024-02-28T03:00:02;101388.81;;;6.44;96.69
75551;BME280;65071;53.082;18.218;2024-02-28T03:02:29;101384.11;;;6.40;96.92
75551;BME280;65071;53.082;18.218;2024-02-28T03:04:55;101381.88;;;6.34;97.13
75551;BME280;65071;53.082;18.218;2024-02-28T03:07:21;101381.58;;;6.31;97.06
75551;BME280;65071;53.082;18.218;2024-02-28T03:09:48;101379.40;;;6.31;97.21
75551;BME280;65071;53.082;18.218;2024-02-28T03:12:14;101373.53;;;6.31;97.42
75551;BME280;65071;53.082;18.218;2024-02-28T03:14:41;101373.50;;;6.29;97.63
75551;BME280;65071;53.082;18.218;2024-02-28T03:17:07;101372.07;;;6.29;97.69
75551;BME280;65071;53.082;18.218;2024-02-28T03:19:33;101377.09;;;6.31;97.56
75551;BME280;65071;53.082;18.218;2024-02-28T03:22:01;101377.32;;;6.33;97.67
75551;BME280;65071;53.082;18.218;2024-02-28T03:24:29;101371.36;;;6.34;97.38
75551;BME280;65071;53.082;18.218;2024-02-28T03:26:55;101369.31;;;6.35;97.08
75551;BME280;65071;53.082;18.218;2024-02-28T03:29:22;101369.79;;;6.36;97.12
75551;BME280;65071;53.082;18.218;2024-02-28T03:31:48;101370.41;;;6.34;97.26
75551;BME280;65071;53.082;18.218;2024-02-28T03:34:14;101375.70;;;6.31;97.35
75551;BME280;65071;53.082;18.218;2024-02-28T03:36:40;101376.98;;;6.27;97.57
75551;BME280;65071;53.082;18.218;2024-02-28T03:39:07;101375.67;;;6.26;97.59
75551;BME280;65071;53.082;18.218;2024-02-28T03:41:33;101378.35;;;6.21;98.26
75551;BME280;65071;53.082;18.218;2024-02-28T03:43:59;101376.59;;;6.21;98.11
75551;BME280;65071;53.082;18.218;2024-02-28T03:46:26;101379.68;;;6.22;97.88
75551;BME280;65071;53.082;18.218;2024-02-28T03:48:52;101379.85;;;6.23;97.88
75551;BME280;65071;53.082;18.218;2024-02-28T03:51:18;101379.34;;;6.22;97.60
75551;BME280;65071;53.082;18.218;2024-02-28T03:53:44;101382.77;;;6.22;97.70
75551;BME280;65071;53.082;18.218;2024-02-28T03:56:11;101380.48;;;6.23;97.60
75551;BME280;65071;53.082;18.218;2024-02-28T03:58:39;101377.77;;;6.24;98.05
75551;BME280;65071;53.082;18.218;2024-02-28T04:01:06;101376.39;;;6.21;98.19
75551;BME280;65071;53.082;18.218;2024-02-28T04:03:32;101377.80;;;6.19;98.40
75551;BME280;65071;53.082;18.218;2024-02-28T04:05:58;101378.73;;;6.19;98.04
75551;BME280;65071;53.082;18.218;2024-02-28T04:08:25;101382.14;;;6.18;97.93
75551;BME280;65071;53.082;18.218;2024-02-28T04:10:51;101386.46;;;6.18;97.99
75551;BME280;65071;53.082;18.218;2024-02-28T04:13:17;101386.91;;;6.19;98.08
75551;BME280;65071;53.082;18.218;2024-02-28T04:15:43;101389.51;;;6.20;97.89
75551;BME280;65071;53.082;18.218;2024-02-28T04:18:12;101385.91;;;6.20;97.71
75551;BME280;65071;53.082;18.218;2024-02-28T04:20:38;101383.73;;;6.21;97.54
75551;BME280;65071;53.082;18.218;2024-02-28T04:23:04;101384.20;;;6.22;97.53
75551;BME280;65071;53.082;18.218;2024-02-28T04:25:30;101383.39;;;6.23;97.46
75551;BME280;65071;53.082;18.218;2024-02-28T04:27:56;101381.04;;;6.26;97.52
75551;BME280;65071;53.082;18.218;2024-02-28T04:30:23;101382.80;;;6.26;97.44
75551;BME280;65071;53.082;18.218;2024-02-28T04:32:49;101386.89;;;6.26;97.43
75551;BME280;65071;53.082;18.218;2024-02-28T04:35:16;101386.63;;;6.28;97.61
75551;BME280;65071;53.082;18.218;2024-02-28T04:37:48;101388.34;;;6.29;97.36
75551;BME280;65071;53.082;18.218;2024-02-28T04:40:14;101390.59;;;6.27;97.14
75551;BME280;65071;53.082;18.218;2024-02-28T04:42:42;101386.95;;;6.23;97.04
75551;BME280;65071;53.082;18.218;2024-02-28T04:45:11;101388.48;;;6.22;97.09
75551;BME280;65071;53.082;18.218;2024-02-28T04:47:37;101384.90;;;6.20;97.20
75551;BME280;65071;53.082;18.218;2024-02-28T04:50:05;101390.92;;;6.20;97.07
75551;BME280;65071;53.082;18.218;2024-02-28T04:52:32;101389.95;;;6.21;97.06
75551;BME280;65071;53.082;18.218;2024-02-28T04:54:59;101391.09;;;6.20;97.13
75551;BME280;65071;53.082;18.218;2024-02-28T04:57:25;101392.00;;;6.20;97.04
75551;BME280;65071;53.082;18.218;2024-02-28T04:59:52;101388.40;;;6.20;97.05
75551;BME280;65071;53.082;18.218;2024-02-28T05:02:18;101392.56;;;6.22;96.97
75551;BME280;65071;53.082;18.218;2024-02-28T05:04:45;101393.08;;;6.22;96.88
75551;BME280;65071;53.082;18.218;2024-02-28T05:07:11;101394.63;;;6.18;96.82
75551;BME280;65071;53.082;18.218;2024-02-28T05:09:38;101393.98;;;6.17;96.84
75551;BME280;65071;53.082;18.218;2024-02-28T05:12:04;101393.37;;;6.16;96.97
75551;BME280;65071;53.082;18.218;2024-02-28T05:14:31;101397.45;;;6.17;97.05
75551;BME280;65071;53.082;18.218;2024-02-28T05:16:57;101397.08;;;6.19;97.06
75551;BME280;65071;53.082;18.218;2024-02-28T05:19:23;101397.88;;;6.20;97.03
75551;BME280;65071;53.082;18.218;2024-02-28T05:21:49;101402.15;;;6.23;97.08
75551;BME280;65071;53.082;18.218;2024-02-28T05:24:16;101406.29;;;6.23;96.79
75551;BME280;65071;53.082;18.218;2024-02-28T05:26:42;101407.67;;;6.23;96.72
75551;BME280;65071;53.082;18.218;2024-02-28T05:29:08;101408.16;;;6.24;96.83
75551;BME280;65071;53.082;18.218;2024-02-28T05:31:34;101412.27;;;6.24;96.84
75551;BME280;65071;53.082;18.218;2024-02-28T05:34:03;101412.55;;;6.25;96.94
75551;BME280;65071;53.082;18.218;2024-02-28T05:36:30;101413.46;;;6.24;96.91
75551;BME280;65071;53.082;18.218;2024-02-28T05:38:58;101414.69;;;6.28;96.93
75551;BME280;65071;53.082;18.218;2024-02-28T05:41:25;101416.70;;;6.29;96.78
75551;BME280;65071;53.082;18.218;2024-02-28T05:43:52;101418.84;;;6.29;96.64
75551;BME280;65071;53.082;18.218;2024-02-28T05:46:19;101416.41;;;6.31;96.69
75551;BME280;65071;53.082;18.218;2024-02-28T05:48:46;101419.06;;;6.31;96.51
75551;BME280;65071;53.082;18.218;2024-02-28T05:51:12;101420.27;;;6.32;96.67
75551;BME280;65071;53.082;18.218;2024-02-28T05:53:42;101425.58;;;6.33;96.41
75551;BME280;65071;53.082;18.218;2024-02-28T05:56:09;101424.23;;;6.29;96.69
75551;BME280;65071;53.082;18.218;2024-02-28T05:58:44;101422.02;;;6.30;96.52
75551;BME280;65071;53.082;18.218;2024-02-28T06:01:10;101426.68;;;6.30;96.52
75551;BME280;65071;53.082;18.218;2024-02-28T06:03:38;101429.16;;;6.30;96.56
75551;BME280;65071;53.082;18.218;2024-02-28T06:06:04;101431.70;;;6.27;96.22
75551;BME280;65071;53.082;18.218;2024-02-28T06:08:32;101431.00;;;6.27;96.49
75551;BME280;65071;53.082;18.218;2024-02-28T06:10:59;101433.08;;;6.25;96.45
75551;BME280;65071;53.082;18.218;2024-02-28T06:13:27;101433.17;;;6.26;96.54
75551;BME280;65071;53.082;18.218;2024-02-28T06:15:55;101436.73;;;6.26;96.77
75551;BME280;65071;53.082;18.218;2024-02-28T06:18:23;101434.21;;;6.27;96.69
75551;BME280;65071;53.082;18.218;2024-02-28T06:20:53;101430.50;;;6.26;96.73
75551;BME280;65071;53.082;18.218;2024-02-28T06:23:21;101434.74;;;6.24;96.94
75551;BME280;65071;53.082;18.218;2024-02-28T06:25:47;101446.91;;;6.24;97.06
75551;BME280;65071;53.082;18.218;2024-02-28T06:28:14;101449.90;;;6.25;96.88
75551;BME280;65071;53.082;18.218;2024-02-28T06:30:42;101451.27;;;6.26;96.97
75551;BME280;65071;53.082;18.218;2024-02-28T06:33:10;101452.28;;;6.24;96.71
75551;BME280;65071;53.082;18.218;2024-02-28T06:35:36;101459.31;;;6.25;96.40
75551;BME280;65071;53.082;18.218;2024-02-28T06:38:02;101462.38;;;6.25;96.71
75551;BME280;65071;53.082;18.218;2024-02-28T06:40:29;101465.36;;;6.28;96.84
75551;BME280;65071;53.082;18.218;2024-02-28T06:42:55;101463.81;;;6.30;96.84
75551;BME280;65071;53.082;18.218;2024-02-28T06:45:22;101466.25;;;6.33;96.63
75551;BME280;65071;53.082;18.218;2024-02-28T06:47:48;101473.58;;;6.33;96.64
75551;BME280;65071;53.082;18.218;2024-02-28T06:50:14;101472.58;;;6.32;96.40
75551;BME280;65071;53.082;18.218;2024-02-28T06:52:42;101480.91;;;6.33;96.53
75551;BME280;65071;53.082;18.218;2024-02-28T06:55:08;101488.18;;;6.34;96.37
75551;BME280;65071;53.082;18.218;2024-02-28T06:57:41;101489.84;;;6.33;96.29
75551;BME280;65071;53.082;18.218;2024-02-28T07:00:10;101493.48;;;6.34;96.42
75551;BME280;65071;53.082;18.218;2024-02-28T07:02:38;101492.07;;;6.34;96.50
75551;BME280;65071;53.082;18.218;2024-02-28T07:05:04;101495.75;;;6.35;96.58
75551;BME280;65071;53.082;18.218;2024-02-28T07:07:33;101492.69;;;6.36;96.65
75551;BME280;65071;53.082;18.218;2024-02-28T07:10:02;101488.47;;;6.35;96.64
75551;BME280;65071;53.082;18.218;2024-02-28T07:12:31;101494.27;;;6.39;96.58
75551;BME280;65071;53.082;18.218;2024-02-28T07:14:58;101500.73;;;6.41;96.59
75551;BME280;65071;53.082;18.218;2024-02-28T07:19:51;101499.39;;;6.44;96.87
75551;BME280;65071;53.082;18.218;2024-02-28T07:22:18;101499.94;;;6.47;96.64
75551;BME280;65071;53.082;18.218;2024-02-28T07:24:44;101500.41;;;6.50;96.65
75551;BME280;65071;53.082;18.218;2024-02-28T07:27:11;101495.63;;;6.52;96.40
75551;BME280;65071;53.082;18.218;2024-02-28T07:29:37;101498.29;;;6.52;96.59
75551;BME280;65071;53.082;18.218;2024-02-28T07:32:04;101502.20;;;6.55;96.54
75551;BME280;65071;53.082;18.218;2024-02-28T07:34:31;101506.47;;;6.58;96.46
75551;BME280;65071;53.082;18.218;2024-02-28T07:36:57;101512.96;;;6.60;96.31
75551;BME280;65071;53.082;18.218;2024-02-28T07:39:23;101511.89;;;6.59;96.42
75551;BME280;65071;53.082;18.218;2024-02-28T07:41:50;101514.91;;;6.62;96.32
75551;BME280;65071;53.082;18.218;2024-02-28T07:44:17;101516.19;;;6.65;96.21
75551;BME280;65071;53.082;18.218;2024-02-28T07:46:43;101519.04;;;6.67;96.38
75551;BME280;65071;53.082;18.218;2024-02-28T07:49:10;101521.08;;;6.68;96.33
75551;BME280;65071;53.082;18.218;2024-02-28T07:51:37;101525.57;;;6.71;96.34
75551;BME280;65071;53.082;18.218;2024-02-28T07:54:03;101519.74;;;6.72;96.44
75551;BME280;65071;53.082;18.218;2024-02-28T07:56:29;101524.19;;;6.75;96.28
75551;BME280;65071;53.082;18.218;2024-02-28T07:58:56;101522.17;;;6.78;96.38
75551;BME280;65071;53.082;18.218;2024-02-28T08:01:23;101521.92;;;6.82;96.19
75551;BME280;65071;53.082;18.218;2024-02-28T08:03:49;101518.16;;;6.84;96.15
75551;BME280;65071;53.082;18.218;2024-02-28T08:06:16;101521.38;;;6.89;96.04
75551;BME280;65071;53.082;18.218;2024-02-28T08:08:45;101520.71;;;6.93;95.94
75551;BME280;65071;53.082;18.218;2024-02-28T08:11:15;101526.98;;;6.95;95.90
75551;BME280;65071;53.082;18.218;2024-02-28T08:13:42;101524.40;;;7.01;96.01
75551;BME280;65071;53.082;18.218;2024-02-28T08:16:10;101524.61;;;7.10;96.01
75551;BME280;65071;53.082;18.218;2024-02-28T08:18:37;101524.55;;;7.21;95.87
75551;BME280;65071;53.082;18.218;2024-02-28T08:21:03;101523.60;;;7.29;95.28
75551;BME280;65071;53.082;18.218;2024-02-28T08:23:30;101517.78;;;7.35;94.81
75551;BME280;65071;53.082;18.218;2024-02-28T08:25:57;101519.16;;;7.38;94.80
75551;BME280;65071;53.082;18.218;2024-02-28T08:28:23;101519.20;;;7.43;93.91
75551;BME280;65071;53.082;18.218;2024-02-28T08:30:53;101514.86;;;7.48;94.24
75551;BME280;65071;53.082;18.218;2024-02-28T08:33:19;101509.91;;;7.51;94.02
75551;BME280;65071;53.082;18.218;2024-02-28T08:35:45;101515.65;;;7.58;93.86
75551;BME280;65071;53.082;18.218;2024-02-28T08:38:12;101517.31;;;7.62;93.43
75551;BME280;65071;53.082;18.218;2024-02-28T08:40:38;101518.61;;;7.67;93.90
75551;BME280;65071;53.082;18.218;2024-02-28T08:43:08;101518.71;;;7.70;93.53
75551;BME280;65071;53.082;18.218;2024-02-28T08:45:34;101518.61;;;7.71;93.22
75551;BME280;65071;53.082;18.218;2024-02-28T08:48:01;101518.03;;;7.76;93.05
75551;BME280;65071;53.082;18.218;2024-02-28T08:50:28;101520.99;;;7.80;92.36
75551;BME280;65071;53.082;18.218;2024-02-28T08:52:55;101521.24;;;7.81;91.64
75551;BME280;65071;53.082;18.218;2024-02-28T08:57:48;101524.96;;;7.82;91.84
75551;BME280;65071;53.082;18.218;2024-02-28T09:02:42;101530.71;;;7.93;91.42
75551;BME280;65071;53.082;18.218;2024-02-28T09:05:08;101539.45;;;8.00;91.76
75551;BME280;65071;53.082;18.218;2024-02-28T09:07:35;101534.80;;;8.05;90.71
75551;BME280;65071;53.082;18.218;2024-02-28T09:10:05;101533.89;;;8.12;90.81
75551;BME280;65071;53.082;18.218;2024-02-28T09:12:32;101544.80;;;8.17;90.38
75551;BME280;65071;53.082;18.218;2024-02-28T09:14:59;101543.79;;;8.18;90.55
75551;BME280;65071;53.082;18.218;2024-02-28T09:17:25;101546.20;;;8.22;91.03
75551;BME280;65071;53.082;18.218;2024-02-28T09:19:52;101539.83;;;8.23;90.33
75551;BME280;65071;53.082;18.218;2024-02-28T09:22:20;101535.39;;;8.25;89.88
75551;BME280;65071;53.082;18.218;2024-02-28T09:24:47;101532.50;;;8.25;89.61
75551;BME280;65071;53.082;18.218;2024-02-28T09:27:15;101540.28;;;8.27;89.95
75551;BME280;65071;53.082;18.218;2024-02-28T09:29:41;101547.36;;;8.28;89.59
75551;BME280;65071;53.082;18.218;2024-02-28T09:32:07;101546.66;;;8.30;90.18
75551;BME280;65071;53.082;18.218;2024-02-28T09:34:35;101546.73;;;8.34;89.62
75551;BME280;65071;53.082;18.218;2024-02-28T09:37:01;101554.80;;;8.36;89.75
75551;BME280;65071;53.082;18.218;2024-02-28T09:39:28;101555.80;;;8.34;89.80
75551;BME280;65071;53.082;18.218;2024-02-28T09:41:54;101553.75;;;8.36;89.84
75551;BME280;65071;53.082;18.218;2024-02-28T09:44:22;101557.09;;;8.39;90.38
75551;BME280;65071;53.082;18.218;2024-02-28T09:46:51;101554.88;;;8.42;90.39
75551;BME280;65071;53.082;18.218;2024-02-28T09:49:18;101555.06;;;8.46;89.31
75551;BME280;65071;53.082;18.218;2024-02-28T09:51:48;101554.31;;;8.51;89.24
75551;BME280;65071;53.082;18.218;2024-02-28T09:54:16;101557.15;;;8.54;89.38
75551;BME280;65071;53.082;18.218;2024-02-28T09:56:42;101557.53;;;8.56;89.01
75551;BME280;65071;53.082;18.218;2024-02-28T09:59:09;101562.98;;;8.57;88.97
75551;BME280;65071;53.082;18.218;2024-02-28T10:01:42;101565.46;;;8.60;89.13
75551;BME280;65071;53.082;18.218;2024-02-28T10:04:10;101568.70;;;8.64;88.92
75551;BME280;65071;53.082;18.218;2024-02-28T10:06:40;101571.14;;;8.65;88.56
75551;BME280;65071;53.082;18.218;2024-02-28T10:09:06;101572.37;;;8.65;88.25
75551;BME280;65071;53.082;18.218;2024-02-28T10:11:33;101580.63;;;8.67;88.77
75551;BME280;65071;53.082;18.218;2024-02-28T10:14:01;101582.39;;;8.72;88.93
75551;BME280;65071;53.082;18.218;2024-02-28T10:16:29;101581.50;;;8.77;89.18
75551;BME280;65071;53.082;18.218;2024-02-28T10:18:56;101585.23;;;8.77;88.93
75551;BME280;65071;53.082;18.218;2024-02-28T10:21:22;101588.40;;;8.80;88.81
75551;BME280;65071;53.082;18.218;2024-02-28T10:23:50;101589.13;;;8.85;88.39
75551;BME280;65071;53.082;18.218;2024-02-28T10:26:17;101590.89;;;8.87;88.29
75551;BME280;65071;53.082;18.218;2024-02-28T10:28:43;101591.35;;;8.90;88.17
75551;BME280;65071;53.082;18.218;2024-02-28T10:31:11;101596.95;;;8.92;87.92
75551;BME280;65071;53.082;18.218;2024-02-28T10:33:38;101596.98;;;8.96;88.36
75551;BME280;65071;53.082;18.218;2024-02-28T10:36:05;101598.58;;;9.01;88.58
75551;BME280;65071;53.082;18.218;2024-02-28T10:38:32;101594.73;;;9.06;88.23
75551;BME280;65071;53.082;18.218;2024-02-28T10:41:02;101599.10;;;9.08;87.82
75551;BME280;65071;53.082;18.218;2024-02-28T10:43:30;101602.32;;;9.08;87.29
75551;BME280;65071;53.082;18.218;2024-02-28T10:45:57;101602.19;;;9.09;88.07
75551;BME280;65071;53.082;18.218;2024-02-28T10:48:26;101599.73;;;9.11;88.58
75551;BME280;65071;53.082;18.218;2024-02-28T10:50:53;101594.61;;;9.12;88.53
75551;BME280;65071;53.082;18.218;2024-02-28T10:53:36;101604.91;;;9.18;87.83
75551;BME280;65071;53.082;18.218;2024-02-28T10:56:05;101601.60;;;9.17;87.89
75551;BME280;65071;53.082;18.218;2024-02-28T10:58:36;101600.84;;;9.15;88.09
75551;BME280;65071;53.082;18.218;2024-02-28T11:01:03;101598.75;;;9.10;87.44
75551;BME280;65071;53.082;18.218;2024-02-28T11:03:31;101604.06;;;9.06;87.95
75551;BME280;65071;53.082;18.218;2024-02-28T11:08:27;101603.67;;;9.05;88.40
75551;BME280;65071;53.082;18.218;2024-02-28T11:10:58;101602.75;;;9.05;88.44
75551;BME280;65071;53.082;18.218;2024-02-28T11:15:53;101604.63;;;9.04;87.98
75551;BME280;65071;53.082;18.218;2024-02-28T11:18:21;101601.45;;;9.05;88.28
75551;BME280;65071;53.082;18.218;2024-02-28T11:20:47;101597.94;;;9.04;87.92
75551;BME280;65071;53.082;18.218;2024-02-28T11:23:17;101604.48;;;9.10;88.64
75551;BME280;65071;53.082;18.218;2024-02-28T11:25:44;101599.34;;;9.16;89.04
75551;BME280;65071;53.082;18.218;2024-02-28T11:28:11;101604.85;;;9.27;88.75
75551;BME280;65071;53.082;18.218;2024-02-28T11:30:37;101601.02;;;9.35;88.62
75551;BME280;65071;53.082;18.218;2024-02-28T11:33:04;101601.80;;;9.42;88.52
75551;BME280;65071;53.082;18.218;2024-02-28T11:35:31;101604.98;;;9.45;87.23
75551;BME280;65071;53.082;18.218;2024-02-28T11:37:57;101607.77;;;9.47;87.81
75551;BME280;65071;53.082;18.218;2024-02-28T11:40:24;101611.04;;;9.50;88.13
75551;BME280;65071;53.082;18.218;2024-02-28T11:42:52;101612.93;;;9.51;88.00
75551;BME280;65071;53.082;18.218;2024-02-28T11:45:19;101606.77;;;9.52;87.76
75551;BME280;65071;53.082;18.218;2024-02-28T11:47:46;101606.80;;;9.54;87.65
75551;BME280;65071;53.082;18.218;2024-02-28T11:50:13;101605.79;;;9.57;88.17
75551;BME280;65071;53.082;18.218;2024-02-28T11:52:45;101606.06;;;9.59;88.35
75551;BME280;65071;53.082;18.218;2024-02-28T11:55:12;101603.70;;;9.57;87.79
75551;BME280;65071;53.082;18.218;2024-02-28T11:57:38;101608.57;;;9.58;88.04
75551;BME280;65071;53.082;18.218;2024-02-28T12:00:07;101605.93;;;9.58;87.35
75551;BME280;65071;53.082;18.218;2024-02-28T12:02:34;101611.25;;;9.59;87.75
75551;BME280;65071;53.082;18.218;2024-02-28T12:05:02;101615.58;;;9.58;87.43
75551;BME280;65071;53.082;18.218;2024-02-28T12:07:30;101614.64;;;9.59;87.44
75551;BME280;65071;53.082;18.218;2024-02-28T12:09:58;101617.61;;;9.60;87.77
75551;BME280;65071;53.082;18.218;2024-02-28T12:12:24;101612.34;;;9.58;87.11
75551;BME280;65071;53.082;18.218;2024-02-28T12:14:51;101617.30;;;9.57;86.88
75551;BME280;65071;53.082;18.218;2024-02-28T12:17:18;101612.71;;;9.58;87.77
75551;BME280;65071;53.082;18.218;2024-02-28T12:19:45;101614.08;;;9.59;87.89
75551;BME280;65071;53.082;18.218;2024-02-28T12:22:11;101619.34;;;9.61;87.39
75551;BME280;65071;53.082;18.218;2024-02-28T12:24:37;101621.52;;;9.63;87.64
75551;BME280;65071;53.082;18.218;2024-02-28T12:27:04;101622.55;;;9.65;87.77
75551;BME280;65071;53.082;18.218;2024-02-28T12:29:30;101621.67;;;9.68;87.61
75551;BME280;65071;53.082;18.218;2024-02-28T12:31:57;101624.02;;;9.71;87.66
75551;BME280;65071;53.082;18.218;2024-02-28T12:34:24;101628.03;;;9.73;87.44
75551;BME280;65071;53.082;18.218;2024-02-28T12:36:50;101624.77;;;9.73;87.36
75551;BME280;65071;53.082;18.218;2024-02-28T12:39:16;101625.27;;;9.73;87.13
75551;BME280;65071;53.082;18.218;2024-02-28T12:41:43;101621.61;;;9.79;87.35
75551;BME280;65071;53.082;18.218;2024-02-28T12:44:09;101617.95;;;9.86;87.63
75551;BME280;65071;53.082;18.218;2024-02-28T12:46:36;101620.85;;;9.94;87.58
75551;BME280;65071;53.082;18.218;2024-02-28T12:49:03;101617.30;;;10.02;87.38
75551;BME280;65071;53.082;18.218;2024-02-28T12:54:08;101620.91;;;10.06;85.79
75551;BME280;65071;53.082;18.218;2024-02-28T12:56:35;101618.13;;;10.07;86.36
75551;BME280;65071;53.082;18.218;2024-02-28T12:59:03;101616.63;;;10.10;86.69
75551;BME280;65071;53.082;18.218;2024-02-28T13:01:29;101619.02;;;10.05;85.92
75551;BME280;65071;53.082;18.218;2024-02-28T13:03:56;101620.81;;;10.05;86.51
75551;BME280;65071;53.082;18.218;2024-02-28T13:06:23;101614.96;;;10.08;87.13